.
WxDataArchive / Data Records for 2006-10-22
2006-10-21 October 2006 2006-10-23

Data Records for Sunday, 22 October 2006

Time	Temp	Chill	HIndex	Humid	Dewpt	 Wind 	HiWind	WindDir	Rain 	Barom 
-----	----	-----	------	-----	-----	------	------	-------	-----	----- 
00:00	51.1	51.1	51.1	67	40.5	0	2	135	0.00	29.789 
00:05	51.0	51.0	51.0	67	40.4	0	1	135	0.00	29.789 
00:10	51.0	51.0	51.0	67	40.4	0	1	135	0.00	29.789 
00:15	50.8	50.8	50.8	67	40.2	0	2	135	0.00	29.784 
00:20	50.8	50.8	50.8	67	40.2	0	1	135	0.00	29.784 
00:25	50.7	50.7	50.7	68	40.5	0	1	135	0.00	29.784 
00:30	50.7	50.7	50.7	68	40.5	0	1	135	0.00	29.776 
00:35	50.5	50.5	50.5	68	40.3	0	1	135	0.00	29.776 
00:40	50.4	50.4	50.4	69	40.6	0	1	135	0.00	29.776 
00:45	50.4	50.4	50.4	69	40.6	0	0	---	0.00	29.772 
00:50	50.2	50.2	50.2	71	41.2	0	0	---	0.00	29.772 
00:55	49.9	49.9	49.9	71	40.9	0	0	---	0.00	29.772 
01:00	49.8	49.8	49.8	72	41.1	0	1	135	0.00	29.767 
01:05	49.6	49.6	49.6	73	41.3	0	1	135	0.00	29.767 
01:10	49.5	49.5	49.5	72	40.9	0	0	---	0.00	29.767 
01:15	49.4	49.4	49.4	73	41.1	0	2	135	0.00	29.757 
01:20	49.4	49.4	49.4	74	41.5	0	2	135	0.00	29.757 
01:25	49.4	49.4	49.4	74	41.5	0	1	135	0.00	29.757 
01:30	49.2	49.2	49.2	73	40.9	0	1	135	0.00	29.747 
01:35	49.2	49.2	49.2	73	40.9	0	1	135	0.00	29.747 
01:40	49.2	49.2	49.2	73	40.9	0	1	135	0.00	29.747 
01:45	49.2	49.2	49.2	74	41.3	0	0	---	0.00	29.742 
01:50	49.2	49.2	49.2	76	42.0	0	0	---	0.00	29.742 
01:55	48.9	48.9	48.9	78	42.3	0	0	---	0.00	29.742 
02:00	48.8	48.8	48.8	80	42.9	0	0	---	0.00	29.737 
02:05	48.6	48.6	48.6	81	43.0	0	1	135	0.00	29.737 
02:10	48.5	48.5	48.5	81	42.9	0	1	135	0.00	29.737 
02:15	48.3	48.3	48.3	81	42.7	0	1	135	0.00	29.724 
02:20	48.2	48.2	48.2	83	43.3	0	0	---	0.00	29.724 
02:25	48.0	48.0	48.0	84	43.4	0	0	---	0.01	29.724 
02:30	47.9	47.9	47.9	84	43.3	0	1	135	0.00	29.724 
02:35	47.7	47.7	47.7	86	43.7	0	0	---	0.01	29.724 
02:40	47.6	47.6	47.6	87	43.9	0	0	---	0.00	29.724 
02:45	47.4	47.4	47.4	87	43.7	0	0	---	0.00	29.722 
02:50	47.3	47.3	47.3	88	43.9	0	0	---	0.00	29.722 
02:55	47.1	47.1	47.1	89	44.0	0	0	---	0.01	29.722 
03:00	47.1	47.1	47.1	90	44.3	0	0	---	0.00	29.721 
03:05	47.0	47.0	47.0	90	44.2	0	0	---	0.00	29.721 
03:10	47.0	47.0	47.0	90	44.2	0	0	---	0.00	29.721 
03:15	46.8	46.8	46.8	91	44.3	0	0	---	0.01	29.714 
03:20	47.0	47.0	47.0	92	44.8	0	0	---	0.00	29.714 
03:25	47.0	47.0	47.0	92	44.8	0	0	---	0.00	29.714 
03:30	46.8	46.8	46.8	92	44.6	0	1	135	0.00	29.701 
03:35	46.8	46.8	46.8	92	44.6	0	1	135	0.00	29.701 
03:40	46.7	46.7	46.7	92	44.5	0	1	135	0.00	29.701 
03:45	46.7	46.7	46.7	92	44.5	0	2	135	0.00	29.687 
03:50	46.7	46.7	46.7	92	44.5	0	1	135	0.00	29.687 
03:55	46.5	46.5	46.5	92	44.3	0	1	135	0.00	29.687 
04:00	46.5	46.5	46.5	92	44.3	0	0	---	0.00	29.676 
04:05	46.4	46.4	46.4	92	44.2	0	0	---	0.00	29.676 
04:10	46.4	46.4	46.4	92	44.2	0	0	---	0.00	29.676 
04:15	46.4	46.4	46.4	92	44.2	0	0	---	0.00	29.673 
04:20	46.4	46.4	46.4	92	44.2	0	0	---	0.00	29.673 
04:25	46.4	46.4	46.4	92	44.2	0	0	---	0.00	29.673 
04:30	46.4	46.4	46.4	92	44.2	0	0	---	0.01	29.662 
04:35	46.4	46.4	46.4	93	44.5	0	1	135	0.00	29.662 
04:40	46.4	46.4	46.4	93	44.5	0	1	135	0.00	29.662 
04:45	46.5	46.5	46.5	93	44.6	0	0	---	0.00	29.652 
04:50	46.5	46.5	46.5	93	44.6	0	1	135	0.00	29.652 
04:55	46.4	46.4	46.4	93	44.5	0	1	135	0.00	29.652 
05:00	46.4	46.4	46.4	93	44.5	0	1	135	0.00	29.644 
05:05	46.4	46.4	46.4	93	44.5	0	1	135	0.00	29.644 
05:10	46.4	46.4	46.4	93	44.5	0	1	135	0.00	29.644 
05:15	46.4	46.4	46.4	93	44.5	0	2	135	0.00	29.641 
05:20	46.4	46.4	46.4	93	44.5	0	1	135	0.01	29.641 
05:25	46.4	46.4	46.4	93	44.5	0	1	135	0.00	29.641 
05:30	46.4	46.4	46.4	93	44.5	0	1	135	0.00	29.641 
05:35	46.4	46.4	46.4	93	44.5	0	2	135	0.00	29.641 
05:40	46.4	46.4	46.4	93	44.5	0	1	112	0.00	29.641 
05:45	46.4	46.4	46.4	93	44.5	0	1	112	0.00	29.642 
05:50	46.4	46.4	46.4	92	44.2	0	3	112	0.00	29.642 
05:55	46.4	46.4	46.4	92	44.2	0	1	112	0.00	29.642 
06:00	46.5	46.5	46.5	93	44.6	0	1	112	0.00	29.642 
06:05	46.5	46.5	46.5	93	44.6	0	1	135	0.00	29.642 
06:10	46.5	46.5	46.5	93	44.6	1	3	270	0.00	29.642 
06:15	46.5	46.5	46.5	93	44.6	1	3	270	0.00	29.643 
06:20	46.5	46.5	46.5	92	44.3	1	4	248	0.00	29.643 
06:25	46.5	46.5	46.5	92	44.3	1	4	248	0.00	29.643 
06:30	46.7	46.7	46.7	92	44.5	1	4	248	0.00	29.641 
06:35	46.7	46.7	46.7	92	44.5	1	4	248	0.00	29.641 
06:40	46.7	46.7	46.7	92	44.5	2	7	248	0.00	29.641 
06:45	46.7	46.7	46.7	93	44.8	2	6	270	0.00	29.641 
06:50	46.7	46.7	46.7	93	44.8	2	5	248	0.00	29.641 
06:55	46.7	46.7	46.7	93	44.8	1	3	248	0.00	29.641 
07:00	46.7	46.7	46.7	93	44.8	1	5	248	0.00	29.639 
07:05	46.7	46.7	46.7	93	44.8	1	4	248	0.00	29.639 
07:10	46.8	46.8	46.8	94	45.2	2	5	248	0.00	29.639 
07:15	46.8	46.8	46.8	94	45.2	2	5	248	0.00	29.639 
07:20	47.0	47.0	47.0	94	45.4	2	6	248	0.00	29.639 
07:25	47.0	47.0	47.0	94	45.4	2	5	248	0.00	29.639 
07:30	47.0	47.0	47.0	93	45.1	1	3	270	0.00	29.643 
07:35	47.0	47.0	47.0	93	45.1	2	9	248	0.00	29.643 
07:40	47.0	47.0	47.0	92	44.8	2	6	248	0.00	29.643 
07:45	47.1	47.1	47.1	92	44.9	2	6	248	0.00	29.646 
07:50	47.1	47.1	47.1	92	44.9	2	5	248	0.00	29.646 
07:55	47.1	47.1	47.1	92	44.9	1	3	248	0.00	29.646 
08:00	47.1	47.1	47.1	92	44.9	2	5	248	0.00	29.647 
08:05	47.1	47.1	47.1	91	44.6	2	6	248	0.00	29.647 
08:10	47.1	47.1	47.1	91	44.6	1	4	248	0.00	29.647 
08:15	47.1	47.1	47.1	91	44.6	1	4	248	0.00	29.650 
08:20	47.1	47.1	47.1	90	44.3	2	6	248	0.00	29.650 
08:25	47.3	47.3	47.3	90	44.5	2	5	270	0.00	29.650 
08:30	47.3	47.3	47.3	89	44.2	2	5	270	0.00	29.655 
08:35	47.3	47.3	47.3	90	44.5	2	5	248	0.00	29.655 
08:40	47.4	47.4	47.4	89	44.3	2	4	248	0.00	29.655 
08:45	47.4	47.4	47.4	89	44.3	2	5	248	0.00	29.664 
08:50	47.4	47.4	47.4	89	44.3	2	4	248	0.00	29.664 
08:55	47.4	47.4	47.4	90	44.6	3	9	248	0.00	29.664 
09:00	47.3	47.3	47.3	91	44.8	2	6	248	0.00	29.673 
09:05	46.8	45.2	46.8	91	44.3	4	10	270	0.00	29.673 
09:10	46.7	45.1	46.7	91	44.2	4	9	270	0.00	29.673 
09:15	46.5	44.8	46.5	91	44.0	4	7	248	0.00	29.681 
09:20	46.2	46.2	46.2	91	43.7	3	10	270	0.00	29.681 
09:25	45.7	45.7	45.7	91	43.2	3	9	270	0.01	29.681 
09:30	45.2	43.3	45.2	91	42.7	4	14	270	0.00	29.697 
09:35	44.6	42.6	44.6	91	42.1	4	7	270	0.00	29.697 
09:40	44.2	42.2	44.2	91	41.7	4	10	270	0.00	29.697 
09:45	43.9	43.9	43.9	92	41.7	3	9	270	0.00	29.708 
09:50	43.6	41.5	43.6	92	41.4	4	10	270	0.00	29.708 
09:55	43.5	41.4	43.5	92	41.3	4	12	270	0.00	29.708 
10:00	43.5	41.4	43.5	92	41.3	4	12	270	0.00	29.716 
10:05	43.3	43.3	43.3	91	40.9	3	9	270	0.00	29.716 
10:10	43.3	41.1	43.3	91	40.9	4	9	270	0.00	29.716 
10:15	43.3	43.3	43.3	91	40.9	2	5	248	0.00	29.724 
10:20	43.1	40.9	43.1	91	40.7	4	15	270	0.00	29.724 
10:25	42.8	39.8	42.8	91	40.4	5	13	270	0.00	29.724 
10:30	42.8	40.6	42.8	92	40.6	4	11	270	0.00	29.729 
10:35	42.6	40.3	42.6	92	40.4	4	7	270	0.00	29.729 
10:40	42.6	40.3	42.6	92	40.4	4	7	270	0.00	29.729 
10:45	42.8	42.8	42.8	92	40.6	3	10	270	0.00	29.733 
10:50	42.6	40.3	42.6	93	40.7	4	9	270	0.00	29.733 
10:55	42.8	39.8	42.8	93	40.9	5	11	270	0.00	29.733 
11:00	43.1	43.1	43.1	93	41.2	3	13	270	0.00	29.743 
11:05	43.3	43.3	43.3	93	41.4	2	5	248	0.00	29.743 
11:10	43.5	43.5	43.5	92	41.3	3	6	248	0.01	29.743 
11:15	43.2	41.0	43.2	92	41.0	4	11	270	0.00	29.749 
11:20	42.8	40.6	42.8	91	40.4	4	7	270	0.00	29.749 
11:25	42.6	40.3	42.6	91	40.2	4	6	270	0.00	29.749 
11:30	42.6	42.6	42.6	91	40.2	3	6	270	0.00	29.751 
11:35	42.6	42.6	42.6	92	40.4	3	7	270	0.00	29.751 
11:40	42.6	42.6	42.6	92	40.4	3	6	270	0.00	29.751 
11:45	42.5	40.2	42.5	91	40.1	4	7	270	0.00	29.757 
11:50	42.5	40.2	42.5	91	40.1	4	10	270	0.00	29.757 
11:55	42.5	40.2	42.5	90	39.8	4	8	270	0.00	29.757 
12:00	42.3	42.3	42.3	90	39.6	3	7	270	0.00	29.760 
12:05	42.3	42.3	42.3	89	39.3	3	6	270	0.00	29.760 
12:10	42.5	42.5	42.5	88	39.2	3	7	270	0.00	29.760 
12:15	42.6	42.6	42.6	88	39.3	3	6	270	0.00	29.768 
12:20	42.6	42.6	42.6	87	39.0	3	6	270	0.00	29.768 
12:25	42.6	40.3	42.6	85	38.4	4	12	270	0.00	29.768 
12:30	42.6	40.3	42.6	86	38.7	4	9	270	0.00	29.773 
12:35	42.8	40.6	42.8	86	38.9	4	8	270	0.00	29.773 
12:40	42.6	40.3	42.6	85	38.4	4	7	270	0.00	29.773 
12:45	42.6	42.6	42.6	86	38.7	3	12	270	0.00	29.781 
12:50	42.5	39.4	42.5	84	38.0	5	12	270	0.00	29.781 
12:55	42.3	40.0	42.3	85	38.1	4	11	270	0.00	29.781 
13:00	42.3	42.3	42.3	86	38.4	3	7	270	0.00	29.782 
13:05	42.5	42.5	42.5	85	38.3	3	6	270	0.00	29.782 
13:10	42.5	40.2	42.5	84	38.0	4	9	270	0.00	29.782 
13:15	42.6	42.6	42.6	85	38.4	3	7	270	0.00	29.784 
13:20	42.8	42.8	42.8	84	38.3	3	7	270	0.00	29.784 
13:25	42.8	42.8	42.8	85	38.6	3	9	270	0.00	29.784 
13:30	42.9	42.9	42.9	84	38.4	3	7	270	0.00	29.788 
13:35	42.9	42.9	42.9	84	38.4	3	9	270	0.00	29.788 
13:40	42.9	40.7	42.9	84	38.4	4	9	270	0.00	29.788 
13:45	42.9	40.7	42.9	83	38.1	4	9	270	0.00	29.796 
13:50	42.9	42.9	42.9	83	38.1	3	7	270	0.00	29.796 
13:55	43.1	40.9	43.1	83	38.3	4	11	270	0.00	29.796 
14:00	43.1	43.1	43.1	82	38.0	3	6	270	0.00	29.790 
14:05	43.2	41.0	43.2	82	38.1	4	9	270	0.00	29.790 
14:10	43.3	43.3	43.3	82	38.2	3	6	270	0.00	29.790 
14:15	43.3	41.1	43.3	81	37.9	4	8	270	0.00	29.795 
14:20	43.3	43.3	43.3	83	38.5	3	9	270	0.00	29.795 
14:25	43.2	43.2	43.2	83	38.4	3	6	270	0.00	29.795 
14:30	43.1	43.1	43.1	84	38.6	3	5	270	0.00	29.798 
14:35	43.1	43.1	43.1	84	38.6	3	11	270	0.00	29.798 
14:40	42.8	42.8	42.8	85	38.6	3	9	270	0.00	29.798 
14:45	42.8	42.8	42.8	86	38.9	3	7	270	0.00	29.801 
14:50	42.6	42.6	42.6	86	38.7	3	6	270	0.00	29.801 
14:55	42.8	42.8	42.8	86	38.9	3	7	270	0.00	29.801 
15:00	42.8	42.8	42.8	86	38.9	3	6	270	0.00	29.802 
15:05	42.8	42.8	42.8	85	38.6	3	6	292	0.00	29.802 
15:10	42.6	42.6	42.6	86	38.7	3	5	248	0.00	29.802 
15:15	42.6	42.6	42.6	87	39.0	3	6	270	0.00	29.805 
15:20	42.5	42.5	42.5	86	38.6	3	6	270	0.00	29.805 
15:25	42.5	42.5	42.5	86	38.6	3	6	270	0.00	29.805 
15:30	42.5	42.5	42.5	86	38.6	3	9	270	0.00	29.814 
15:35	42.5	42.5	42.5	86	38.6	3	10	248	0.00	29.814 
15:40	42.5	42.5	42.5	86	38.6	3	6	270	0.00	29.814 
15:45	42.3	42.3	42.3	86	38.4	3	10	270	0.00	29.819 
15:50	42.3	42.3	42.3	86	38.4	3	6	270	0.00	29.819 
15:55	42.3	40.0	42.3	85	38.1	4	10	270	0.00	29.819 
16:00	42.5	42.5	42.5	85	38.3	3	7	270	0.00	29.827 
16:05	42.3	42.3	42.3	85	38.1	3	9	270	0.00	29.827 
16:10	42.2	42.2	42.2	86	38.3	3	6	270	0.00	29.827 
16:15	42.2	42.2	42.2	86	38.3	3	6	270	0.00	29.836 
16:20	42.3	42.3	42.3	85	38.1	3	6	270	0.00	29.836 
16:25	42.5	42.5	42.5	84	38.0	3	7	270	0.00	29.836 
16:30	42.5	42.5	42.5	84	38.0	2	5	270	0.00	29.849 
16:35	42.6	42.6	42.6	82	37.5	3	9	270	0.00	29.849 
16:40	42.6	42.6	42.6	83	37.8	2	6	292	0.00	29.849 
16:45	42.6	42.6	42.6	82	37.5	3	5	270	0.00	29.850 
16:50	42.6	42.6	42.6	82	37.5	2	4	315	0.00	29.850 
16:55	42.3	42.3	42.3	83	37.5	3	5	270	0.00	29.850 
17:00	42.2	42.2	42.2	83	37.4	2	5	270	0.00	29.863 
17:05	42.3	42.3	42.3	82	37.2	1	4	270	0.00	29.863 
17:10	42.3	42.3	42.3	78	35.9	3	6	315	0.00	29.863 
17:15	42.5	42.5	42.5	79	36.5	2	3	315	0.00	29.867 
17:20	42.5	42.5	42.5	81	37.1	2	4	248	0.00	29.867 
17:25	42.3	42.3	42.3	81	36.9	2	4	270	0.00	29.867 
17:30	42.2	42.2	42.2	81	36.8	2	5	292	0.00	29.878 
17:35	41.9	41.9	41.9	80	36.2	3	6	270	0.00	29.878 
17:40	41.6	41.6	41.6	80	35.9	3	7	270	0.00	29.878 
17:45	41.3	41.3	41.3	79	35.3	3	7	270	0.00	29.884 
17:50	41.2	41.2	41.2	79	35.2	3	7	270	0.00	29.884 
17:55	41.2	41.2	41.2	80	35.5	2	6	270	0.00	29.884 
18:00	41.1	41.1	41.1	80	35.4	3	7	270	0.00	29.891 
18:05	40.9	40.9	40.9	81	35.5	2	5	270	0.00	29.891 
18:10	40.8	40.8	40.8	81	35.4	3	6	270	0.00	29.891 
18:15	40.6	40.6	40.6	82	35.5	2	5	248	0.00	29.895 
18:20	40.6	40.6	40.6	81	35.2	3	6	270	0.00	29.895 
18:25	40.6	40.6	40.6	81	35.2	3	5	270	0.00	29.895 
18:30	40.6	40.6	40.6	80	34.9	3	5	270	0.00	29.901 
18:35	40.6	40.6	40.6	81	35.2	2	4	270	0.00	29.901 
18:40	40.6	40.6	40.6	80	34.9	2	4	248	0.00	29.901 
18:45	40.6	40.6	40.6	80	34.9	2	4	270	0.00	29.910 
18:50	40.6	40.6	40.6	80	34.9	3	7	270	0.00	29.910 
18:55	40.6	40.6	40.6	80	34.9	2	4	270	0.00	29.910 
19:00	40.6	40.6	40.6	80	34.9	2	4	270	0.00	29.914 
19:05	40.5	40.5	40.5	81	35.1	2	5	248	0.00	29.914 
19:10	40.5	40.5	40.5	80	34.8	2	5	270	0.00	29.914 
19:15	40.5	40.5	40.5	79	34.5	1	4	270	0.00	29.916 
19:20	40.6	40.6	40.6	77	34.0	3	6	270	0.00	29.916 
19:25	40.6	40.6	40.6	76	33.6	2	4	248	0.00	29.916 
19:30	40.8	40.8	40.8	76	33.8	2	5	292	0.00	29.923 
19:35	40.8	40.8	40.8	76	33.8	2	5	270	0.00	29.923 
19:40	40.8	40.8	40.8	76	33.8	1	3	270	0.00	29.923 
19:45	40.8	40.8	40.8	76	33.8	1	3	292	0.00	29.927 
19:50	40.8	40.8	40.8	77	34.2	1	5	270	0.00	29.927 
19:55	40.6	40.6	40.6	76	33.6	3	7	270	0.00	29.927 
20:00	40.3	40.3	40.3	77	33.7	2	5	270	0.00	29.935 
20:05	39.8	39.8	39.8	80	34.1	3	5	270	0.00	29.935 
20:10	39.3	39.3	39.3	82	34.3	2	4	292	0.00	29.935 
20:15	39.1	39.1	39.1	83	34.4	1	4	270	0.00	29.943 
20:20	39.1	39.1	39.1	83	34.4	1	3	270	0.00	29.943 
20:25	39.1	39.1	39.1	83	34.4	1	3	270	0.00	29.943 
20:30	39.1	39.1	39.1	82	34.1	1	3	270	0.00	29.946 
20:35	39.2	39.2	39.2	81	33.9	2	6	270	0.00	29.946 
20:40	39.2	39.2	39.2	78	32.9	3	6	270	0.00	29.946 
20:45	39.3	39.3	39.3	77	32.7	3	6	270	0.00	29.949 
20:50	39.2	39.2	39.2	77	32.6	2	6	270	0.00	29.949 
20:55	39.2	39.2	39.2	77	32.6	1	3	270	0.00	29.949 
21:00	39.2	39.2	39.2	74	31.6	2	4	248	0.00	29.954 
21:05	39.1	39.1	39.1	73	31.2	3	5	270	0.00	29.954 
21:10	39.1	39.1	39.1	72	30.8	2	4	248	0.00	29.954 
21:15	38.9	38.9	38.9	73	31.0	2	7	248	0.00	29.963 
21:20	38.9	38.9	38.9	70	30.0	2	6	270	0.00	29.963 
21:25	38.9	38.9	38.9	70	30.0	2	4	270	0.00	29.963 
21:30	38.9	38.9	38.9	71	30.3	2	4	248	0.00	29.964 
21:35	38.9	38.9	38.9	70	30.0	3	7	270	0.00	29.964 
21:40	38.8	38.8	38.8	69	29.5	3	10	270	0.00	29.964 
21:45	38.8	38.8	38.8	69	29.5	3	6	270	0.00	29.965 
21:50	38.8	38.8	38.8	70	29.9	2	7	270	0.00	29.965 
21:55	38.8	38.8	38.8	71	30.2	1	3	248	0.00	29.965 
22:00	38.8	38.8	38.8	71	30.2	2	5	270	0.00	29.968 
22:05	38.6	38.6	38.6	72	30.4	2	4	270	0.00	29.968 
22:10	38.6	38.6	38.6	70	29.7	3	7	248	0.00	29.968 
22:15	38.5	38.5	38.5	70	29.6	3	6	270	0.00	29.968 
22:20	38.3	38.3	38.3	70	29.4	3	5	270	0.00	29.968 
22:25	38.2	38.2	38.2	69	28.9	3	6	270	0.00	29.968 
22:30	38.0	38.0	38.0	70	29.1	2	5	270	0.00	29.971 
22:35	38.0	38.0	38.0	68	28.4	3	6	270	0.00	29.971 
22:40	37.9	34.9	37.9	68	28.3	4	7	270	0.00	29.971 
22:45	37.8	37.8	37.8	68	28.2	3	5	270	0.00	29.972 
22:50	37.8	37.8	37.8	68	28.2	3	6	270	0.00	29.972 
22:55	37.6	37.6	37.6	67	27.7	3	5	270	0.00	29.972 
23:00	37.6	37.6	37.6	66	27.3	2	6	248	0.00	29.971 
23:05	37.6	37.6	37.6	67	27.7	2	4	270	0.00	29.971 
23:10	37.5	37.5	37.5	67	27.6	2	7	270	0.00	29.971 
23:15	37.5	37.5	37.5	68	27.9	1	3	248	0.00	29.973 
23:20	37.5	37.5	37.5	66	27.2	2	4	248	0.00	29.973 
23:25	37.3	37.3	37.3	65	26.6	2	5	248	0.00	29.973 
23:30	37.3	37.3	37.3	65	26.6	2	5	270	0.00	29.972 
23:35	37.2	37.2	37.2	64	26.2	1	5	270	0.00	29.972 
23:40	37.2	37.2	37.2	64	26.2	2	5	270	0.00	29.972 
23:45	37.0	37.0	37.0	66	26.7	1	3	270	0.00	29.970 
23:50	37.0	37.0	37.0	65	26.3	2	7	270	0.00	29.970 
23:55	36.9	36.9	36.9	66	26.6	2	4	270	0.00	29.970 

CoCoRaHS
IN-AL-39
A2 Web Hosting
Creative Commons License
GoDaddy
Look for:

loaded 2017-10-19 19:52:42 • last modified 2010-11-18 10:43:29
Privacy PolicyDisclaimer
• wx.awcolley.com is powered by PmWiki v.2002016 •
• all content (unless otherwise noted) © 2017 A W Colley